Time;durP1;ratioP1;P1;durP2;ratioP2;P2;SDS_P1;SDS_P2;PMS_P1;PMS_P2;Temp;Humidity;BMP_temperature;BMP_pressure;BME280_temperature;BME280_humidity;BME280_pressure;Samples;Min_cycle;Max_cycle;Signal;HPM_P1;HPM_P2
2020/12/10 00:00:19;;;;;;;31.82;16.17;;;;;;;-1.45;72.91;100384.66;1763910;81;25861;-55
2020/12/10 00:02:48;;;;;;;30.25;14.98;;;;;;;-1.44;73.02;100382.31;1764072;81;26317;-54
2020/12/10 00:05:16;;;;;;;34.70;15.00;;;;;;;-1.47;73.08;100381.97;1763730;81;25770;-55
2020/12/10 00:07:43;;;;;;;28.25;14.38;;;;;;;-1.45;73.27;100387.31;1763650;81;25677;-55
2020/12/10 00:10:10;;;;;;;23.35;11.93;;;;;;;-1.42;73.46;100384.22;1763721;81;25642;-56
2020/12/10 00:12:45;;;;;;;31.77;13.35;;;;;;;-1.45;73.43;100375.91;1763780;81;26441;-51
2020/12/10 00:15:13;;;;;;;24.37;12.88;;;;;;;-1.44;73.46;100377.54;1763787;81;25981;-52
2020/12/10 00:17:40;;;;;;;26.87;12.82;;;;;;;-1.46;73.63;100368.47;1763748;81;25793;-50
2020/12/10 00:20:09;;;;;;;24.67;12.33;;;;;;;-1.47;73.57;100366.05;1763725;81;25687;-49
2020/12/10 00:22:36;;;;;;;27.90;11.97;;;;;;;-1.47;73.77;100370.83;1763954;81;26380;-52
2020/12/10 00:25:07;;;;;;;20.72;11.28;;;;;;;-1.46;73.74;100359.69;1763865;81;25705;-51
2020/12/10 00:27:36;;;;;;;23.27;11.03;;;;;;;-1.46;73.96;100354.38;1763883;81;26151;-52
2020/12/10 00:30:10;;;;;;;;;;;;;;;-1.48;73.92;100356.45;1766401;81;25720;-51
2020/12/10 00:32:38;;;;;;;24.43;11.85;;;;;;;-1.49;73.96;100353.00;1763730;81;25828;-49
2020/12/10 00:35:07;;;;;;;26.62;10.78;;;;;;;-1.50;74.14;100347.39;1763895;81;25594;-51
2020/12/10 00:37:36;;;;;;;26.33;12.30;;;;;;;-1.51;74.31;100347.12;1763967;81;25674;-49
2020/12/10 00:40:06;;;;;;;18.82;10.25;;;;;;;-1.52;74.27;100337.53;1763777;81;25925;-52
2020/12/10 00:42:33;;;;;;;22.77;11.83;;;;;;;-1.51;74.33;100336.51;1763277;81;25793;-51
2020/12/10 00:44:59;;;;;;;25.17;12.25;;;;;;;-1.51;74.33;100337.84;1763828;81;26384;-45
2020/12/10 00:47:26;;;;;;;20.25;9.98;;;;;;;-1.49;74.37;100334.95;1763729;81;26267;-45
2020/12/10 00:49:52;;;;;;;23.30;11.25;;;;;;;-1.47;74.47;100334.20;1763491;81;26359;-50
2020/12/10 00:52:25;;;;;;;21.52;9.98;;;;;;;-1.46;74.47;100330.50;1763804;81;26344;-47
2020/12/10 00:54:52;;;;;;;24.15;11.35;;;;;;;-1.45;74.49;100324.17;1763757;81;26397;-46
2020/12/10 00:57:18;;;;;;;19.80;11.15;;;;;;;-1.46;74.69;100322.54;1755954;81;25796;-46
2020/12/10 00:59:45;;;;;;;23.92;10.08;;;;;;;-1.45;74.73;100325.50;1733374;82;25692;-49
2020/12/10 01:02:11;;;;;;;24.67;11.65;;;;;;;-1.48;74.84;100316.16;1733401;82;25751;-50
2020/12/10 01:04:38;;;;;;;22.45;12.45;;;;;;;-1.47;74.98;100312.98;1733323;82;26391;-52
2020/12/10 01:07:05;;;;;;;24.30;10.78;;;;;;;-1.46;74.91;100308.77;1733361;82;26230;-51
2020/12/10 01:09:31;;;;;;;24.12;10.50;;;;;;;-1.44;74.90;100307.22;1733302;82;26514;-48
2020/12/10 01:11:58;;;;;;;24.25;9.73;;;;;;;-1.41;74.93;100305.45;1733281;82;25691;-48
2020/12/10 01:14:24;;;;;;;22.82;10.35;;;;;;;-1.43;74.98;100304.84;1733474;82;25696;-51
2020/12/10 01:16:51;;;;;;;21.87;11.70;;;;;;;-1.42;75.07;100298.51;1733337;82;25716;-49
2020/12/10 01:19:17;;;;;;;21.50;10.35;;;;;;;-1.40;75.00;100302.53;1733332;82;25695;-52
2020/12/10 01:21:44;;;;;;;22.40;11.08;;;;;;;-1.38;75.10;100298.33;1725778;81;25724;-52
2020/12/10 01:24:11;;;;;;;19.62;11.03;;;;;;;-1.34;75.17;100294.20;1730926;82;25822;-51
2020/12/10 01:26:38;;;;;;;22.82;10.28;;;;;;;-1.33;75.17;100279.38;1732070;82;25507;-51
2020/12/10 01:29:06;;;;;;;23.35;11.93;;;;;;;-1.30;75.28;100275.96;1731927;82;26194;-48
2020/12/10 01:31:33;;;;;;;19.23;9.03;;;;;;;-1.28;75.20;100277.86;1731646;82;25747;-51
2020/12/10 01:34:00;;;;;;;21.48;10.45;;;;;;;-1.31;75.51;100271.19;1731751;82;25920;-48
2020/12/10 01:36:29;;;;;;;20.40;10.18;;;;;;;-1.37;75.32;100264.93;1731709;82;26412;-50
2020/12/10 01:38:57;;;;;;;21.33;9.80;;;;;;;-1.30;75.33;100275.96;1732029;82;25705;-50
2020/12/10 01:41:31;;;;;;;22.30;11.48;;;;;;;-1.30;75.66;100276.77;1731723;82;26299;-50
2020/12/10 01:44:10;;;;;;;23.40;9.73;;;;;;;-1.29;75.62;100273.58;1708524;82;25626;-52
2020/12/10 01:46:39;;;;;;;23.67;11.63;;;;;;;-1.32;76.29;100273.53;1732128;82;25826;-52
2020/12/10 01:49:07;;;;;;;24.02;11.57;;;;;;;-1.33;76.16;100272.73;1732366;82;25696;-51
2020/12/10 01:51:35;;;;;;;20.70;10.60;;;;;;;-1.35;76.20;100269.48;1752721;81;25613;-48
2020/12/10 01:54:07;;;;;;;26.45;11.75;;;;;;;-1.37;75.99;100267.59;1735386;82;26157;-50
2020/12/10 01:56:34;;;;;;;24.90;12.15;;;;;;;-1.36;76.17;100269.74;1752911;81;26327;-49
2020/12/10 01:59:01;;;;;;;21.25;11.00;;;;;;;-1.36;76.18;100269.74;1738252;81;26390;-49
2020/12/10 02:01:29;;;;;;;24.05;11.43;;;;;;;-1.37;76.13;100262.80;1737847;81;25605;-48
2020/12/10 02:03:57;;;;;;;24.40;11.28;;;;;;;-1.35;76.42;100266.83;1737832;81;25668;-48
2020/12/10 02:06:24;;;;;;;24.55;11.75;;;;;;;-1.35;76.21;100258.87;1725120;82;26384;-48
2020/12/10 02:08:51;;;;;;;29.00;11.57;;;;;;;-1.32;76.27;100265.58;1737659;82;26257;-47
2020/12/10 02:11:18;;;;;;;23.30;12.37;;;;;;;-1.33;76.31;100256.81;1737722;81;26020;-49
2020/12/10 02:13:44;;;;;;;27.35;11.95;;;;;;;-1.29;76.41;100260.31;1737556;82;25612;-49
2020/12/10 02:16:11;;;;;;;34.10;12.78;;;;;;;-1.29;76.41;100248.37;1737739;82;25747;-49
2020/12/10 02:18:38;;;;;;;28.07;13.60;;;;;;;-1.26;76.51;100246.09;1737665;82;25763;-48
2020/12/10 02:21:05;;;;;;;22.37;11.97;;;;;;;-1.26;76.40;100242.11;1733204;82;25755;-49
2020/12/10 02:23:32;;;;;;;22.70;11.80;;;;;;;-1.27;76.45;100248.44;1733328;82;26385;-48
2020/12/10 02:25:59;;;;;;;31.40;12.33;;;;;;;-1.26;76.66;100246.59;1733184;82;25661;-47
2020/12/10 02:28:26;;;;;;;24.85;11.97;;;;;;;-1.33;76.86;100243.55;1733280;82;25701;-47
2020/12/10 02:30:53;;;;;;;28.02;13.15;;;;;;;-1.35;76.64;100242.14;1733247;82;26338;-47
2020/12/10 02:33:20;;;;;;;27.07;13.35;;;;;;;-1.35;76.81;100244.80;1733169;82;25671;-48
2020/12/10 02:35:46;;;;;;;29.45;13.60;;;;;;;-1.38;76.72;100230.16;1733304;81;25879;-51
2020/12/10 02:38:13;;;;;;;30.35;13.95;;;;;;;-1.37;76.83;100225.66;1733189;82;25728;-47
2020/12/10 02:40:46;;;;;;;36.58;14.43;;;;;;;-1.38;77.30;100230.16;1733231;82;25616;-49
2020/12/10 02:43:15;;;;;;;30.48;14.53;;;;;;;-1.39;76.99;100221.91;1733359;82;25801;-45
2020/12/10 02:45:43;;;;;;;31.57;13.75;;;;;;;-1.39;77.06;100217.92;1733308;82;25659;-46
2020/12/10 02:48:10;;;;;;;25.35;12.30;;;;;;;-1.38;76.92;100222.70;1733194;82;25721;-49
2020/12/10 02:50:37;;;;;;;29.32;14.25;;;;;;;-1.42;77.73;100216.25;1733247;82;25623;-45
2020/12/10 02:53:05;;;;;;;34.83;16.52;;;;;;;-1.47;77.28;100207.66;1733296;82;25574;-47
2020/12/10 02:55:34;;;;;;;36.63;16.00;;;;;;;-1.48;77.28;100217.17;1733231;82;26237;-47
2020/12/10 02:58:01;;;;;;;31.33;14.15;;;;;;;-1.48;77.43;100217.17;1742763;81;25642;-46
2020/12/10 03:00:27;;;;;;;31.48;14.28;;;;;;;-1.53;77.41;100209.39;1750657;81;25611;-49
2020/12/10 03:02:54;;;;;;;34.78;15.93;;;;;;;-1.51;77.49;100206.52;1750509;81;25618;-48
2020/12/10 03:05:21;;;;;;;35.15;14.53;;;;;;;-1.51;77.51;100205.98;1750802;81;25605;-48
2020/12/10 03:07:47;;;;;;;34.67;15.60;;;;;;;-1.52;77.53;100191.62;1750817;81;26434;-47
2020/12/10 03:10:14;;;;;;;33.15;14.47;;;;;;;-1.56;77.67;100196.59;1750438;81;25847;-47
2020/12/10 03:12:41;;;;;;;35.17;17.42;;;;;;;-1.58;77.85;100192.03;1750544;81;25599;-48
2020/12/10 03:15:07;;;;;;;38.45;15.98;;;;;;;-1.58;77.81;100191.23;1750560;81;25599;-45
2020/12/10 03:17:34;;;;;;;36.08;15.78;;;;;;;-1.60;77.77;100186.66;1750576;81;25620;-47
2020/12/10 03:20:01;;;;;;;32.67;16.73;;;;;;;-1.61;77.87;100187.19;1750518;81;25907;-47
2020/12/10 03:22:27;;;;;;;33.40;13.98;;;;;;;-1.60;77.90;100183.51;1750641;81;25646;-47
2020/12/10 03:24:54;;;;;;;35.68;16.10;;;;;;;-1.57;78.06;100179.04;1750703;81;25695;-48
2020/12/10 03:27:20;;;;;;;34.55;16.32;;;;;;;-1.58;78.15;100172.67;1750667;81;25608;-47
2020/12/10 03:29:47;;;;;;;37.83;15.63;;;;;;;-1.59;77.91;100170.52;1750704;81;25967;-47
2020/12/10 03:32:13;;;;;;;43.00;16.97;;;;;;;-1.58;77.97;100170.02;1750651;81;26264;-48
2020/12/10 03:34:41;;;;;;;38.88;16.05;;;;;;;-1.58;77.96;100166.83;1750724;81;25564;-45
2020/12/10 03:37:08;;;;;;;39.70;16.85;;;;;;;-1.57;77.99;100159.14;1750655;81;25668;-47
2020/12/10 03:39:35;;;;;;;35.48;16.05;;;;;;;-1.57;77.97;100168.43;1750686;81;26287;-49
2020/12/10 03:42:02;;;;;;;38.92;16.77;;;;;;;-1.59;78.04;100161.76;1750816;81;25628;-45
2020/12/10 03:44:29;;;;;;;44.77;17.45;;;;;;;-1.61;78.08;100158.01;1750596;81;25985;-44
2020/12/10 03:46:56;;;;;;;35.05;14.23;;;;;;;-1.60;78.12;100158.30;1750691;81;25598;-47
2020/12/10 03:49:23;;;;;;;38.38;14.73;;;;;;;-1.61;78.34;100156.68;1750645;81;25928;-44
2020/12/10 03:51:50;;;;;;;38.53;14.68;;;;;;;-1.62;78.13;100160.36;1750696;81;25799;-47
2020/12/10 03:54:16;;;;;;;31.07;13.75;;;;;;;-1.62;78.01;100150.28;1750701;81;25877;-46
2020/12/10 03:56:43;;;;;;;33.23;14.18;;;;;;;-1.59;78.07;100139.20;1750736;81;26117;-47
2020/12/10 03:59:11;;;;;;;37.10;15.28;;;;;;;-1.59;78.07;100136.56;1737325;82;25722;-46
2020/12/10 04:01:40;;;;;;;32.65;14.65;;;;;;;-1.58;77.97;100136.86;1737342;82;26566;-46
2020/12/10 04:04:07;;;;;;;32.50;15.58;;;;;;;-1.57;77.93;100127.84;1737427;82;25712;-44
2020/12/10 04:06:34;;;;;;;31.00;14.13;;;;;;;-1.55;77.92;100129.73;1737295;82;25657;-48
2020/12/10 04:09:02;;;;;;;29.92;13.43;;;;;;;-1.55;77.87;100138.52;1737286;82;26420;-48
2020/12/10 04:11:28;;;;;;;29.95;13.08;;;;;;;-1.55;77.78;100127.09;1712753;82;25730;-47
2020/12/10 04:13:55;;;;;;;29.55;13.60;;;;;;;-1.53;77.81;100127.16;1737273;82;25678;-45
2020/12/10 04:16:23;;;;;;;34.73;14.30;;;;;;;-1.53;77.97;100121.05;1737268;82;25280;-48
2020/12/10 04:18:50;;;;;;;36.60;16.07;;;;;;;-1.55;77.86;100119.13;1737590;82;25845;-47
2020/12/10 04:21:17;;;;;;;33.70;14.53;;;;;;;-1.55;77.79;100123.11;1728202;82;26341;-46
2020/12/10 04:23:43;;;;;;;34.20;16.35;;;;;;;-1.55;77.70;100131.89;1726201;83;25607;-47
2020/12/10 04:26:13;;;;;;;35.23;15.58;;;;;;;-1.55;77.70;100129.73;1726220;83;25646;-45
2020/12/10 04:28:41;;;;;;;34.33;14.28;;;;;;;-1.56;77.71;100134.77;1726161;83;25664;-45
2020/12/10 04:31:08;;;;;;;40.60;14.83;;;;;;;-1.58;77.71;100124.92;1726284;83;25748;-45
2020/12/10 04:33:35;;;;;;;33.25;14.87;;;;;;;-1.58;77.64;100131.55;1726481;83;26241;-48
2020/12/10 04:36:02;;;;;;;36.77;15.55;;;;;;;-1.62;77.54;100127.73;1726448;83;26308;-45
2020/12/10 04:38:28;;;;;;;39.83;15.95;;;;;;;-1.62;77.56;100130.38;1707469;83;26362;-47
2020/12/10 04:40:56;;;;;;;37.67;14.90;;;;;;;-1.65;77.66;100143.61;1726477;83;25743;-45
2020/12/10 04:43:28;;;;;;;32.83;15.05;;;;;;;-1.67;77.45;100142.20;1726571;83;25722;-45
2020/12/10 04:46:00;;;;;;;32.93;14.87;;;;;;;-1.72;77.55;100129.13;1703979;84;26251;-50
2020/12/10 04:48:34;;;;;;;39.38;14.83;;;;;;;-1.72;77.63;100130.46;1703816;83;25723;-47
2020/12/10 04:51:05;;;;;;;34.40;15.00;;;;;;;-1.72;77.61;100138.42;1682989;84;26261;-47
2020/12/10 04:53:32;;;;;;;37.10;15.35;;;;;;;-1.73;77.70;100136.79;1703931;83;25696;-48
2020/12/10 04:56:05;;;;;;;38.33;15.98;;;;;;;-1.71;77.67;100137.89;1703982;83;25609;-47
2020/12/10 04:58:33;;;;;;;36.70;16.45;;;;;;;-1.70;77.82;100128.37;1707263;83;25763;-48
2020/12/10 05:01:03;;;;;;;40.80;17.70;;;;;;;-1.65;77.74;100130.84;1708483;83;25672;-48
2020/12/10 05:03:32;;;;;;;38.50;16.30;;;;;;;-1.63;77.86;100128.26;1721019;83;25668;-47
2020/12/10 05:06:10;;;;;;;44.20;17.17;;;;;;;-1.63;77.68;100121.63;1721303;83;25890;-45
2020/12/10 05:08:37;;;;;;;38.60;17.10;;;;;;;-1.61;77.69;100113.44;1721056;83;25619;-50
2020/12/10 05:11:04;;;;;;;44.18;17.48;;;;;;;-1.60;77.62;100120.34;1720968;83;26237;-46
2020/12/10 05:13:30;;;;;;;39.40;17.30;;;;;;;-1.59;77.56;100119.31;1720989;83;25687;-48
2020/12/10 05:15:57;;;;;;;37.03;16.85;;;;;;;-1.58;77.60;100120.94;1721084;83;25664;-46
2020/12/10 05:18:24;;;;;;;46.18;17.07;;;;;;;-1.59;77.59;100117.99;1720944;83;25637;-47
2020/12/10 05:20:57;;;;;;;41.63;17.70;;;;;;;-1.63;77.51;100116.86;1737776;81;25678;-48
2020/12/10 05:23:40;;;;;;;40.88;16.90;;;;;;;-1.66;77.94;100117.31;1733560;82;25719;-46
2020/12/10 05:26:09;;;;;;;39.03;15.68;;;;;;;-1.70;77.67;100117.77;1756716;81;25718;-46
2020/12/10 05:28:49;;;;;;;36.07;16.73;;;;;;;-1.73;77.72;100110.27;1733803;82;25676;-48
2020/12/10 05:31:20;;;;;;;42.90;18.98;;;;;;;-1.72;77.85;100114.55;1756683;81;25792;-46
2020/12/10 05:33:57;;;;;;;42.08;17.52;;;;;;;-1.70;77.76;100113.79;1733567;82;25635;-50
2020/12/10 05:36:32;;;;;;;42.00;17.40;;;;;;;-1.69;77.94;100111.94;1756668;81;25765;-49
2020/12/10 05:39:10;;;;;;;38.65;18.10;;;;;;;-1.67;77.94;100107.73;1731916;82;25802;-49
2020/12/10 05:41:44;;;;;;;37.90;16.85;;;;;;;-1.64;77.88;100109.92;1746184;82;25709;-49
2020/12/10 05:44:20;;;;;;;37.23;17.17;;;;;;;-1.62;77.84;100112.62;1746190;81;25624;-51
2020/12/10 05:46:51;;;;;;;39.95;16.60;;;;;;;-1.60;77.68;100101.78;1746266;82;25685;-45
2020/12/10 05:49:18;;;;;;;42.33;16.95;;;;;;;-1.59;77.61;100100.22;1746223;82;25720;-48
2020/12/10 05:51:50;;;;;;;39.50;16.82;;;;;;;-1.60;77.52;100094.64;1746100;82;25684;-45
2020/12/10 05:54:19;;;;;;;36.53;16.77;;;;;;;-1.60;77.62;100089.34;1746159;81;25671;-49
2020/12/10 05:57:05;;;;;;;36.90;15.60;;;;;;;-1.59;77.53;100089.61;1745305;82;25798;-47
2020/12/10 05:59:33;;;;;;;34.05;15.08;;;;;;;-1.59;77.50;100075.55;1702684;84;26296;-46
2020/12/10 06:02:08;;;;;;;37.03;16.30;;;;;;;-1.61;77.55;100097.53;1702688;84;27349;-46
2020/12/10 06:04:35;;;;;;;33.30;14.65;;;;;;;-1.63;77.63;100089.80;1702578;84;25661;-49
2020/12/10 06:07:02;;;;;;;39.85;16.37;;;;;;;-1.63;77.67;100095.64;1702606;84;25737;-45
2020/12/10 06:09:29;;;;;;;38.85;17.17;;;;;;;-1.64;77.54;100097.45;1702606;84;25717;-49
2020/12/10 06:12:08;;;;;;;35.83;16.00;;;;;;;-1.62;77.54;100098.03;1702717;84;25720;-46
2020/12/10 06:14:56;;;;;;;34.48;16.48;;;;;;;-1.61;77.70;100098.33;1702657;84;26267;-45
2020/12/10 06:17:23;;;;;;;43.60;17.07;;;;;;;-1.58;77.58;100101.05;1702259;84;26298;-50
2020/12/10 06:19:50;;;;;;;43.70;18.23;;;;;;;-1.58;77.53;100089.11;1702102;84;25695;-48
2020/12/10 06:22:33;;;;;;;41.60;17.50;;;;;;;-1.61;77.52;100097.00;1719886;83;26353;-46
2020/12/10 06:25:07;;;;;;;35.78;17.02;;;;;;;-1.61;77.51;100093.02;1721103;83;25311;-49
2020/12/10 06:27:36;;;;;;;34.88;16.17;;;;;;;-1.57;77.56;100090.70;1727627;82;26804;-49
2020/12/10 06:30:19;;;;;;;38.30;16.75;;;;;;;-1.57;77.54;100086.73;1730537;82;25671;-48
2020/12/10 06:32:51;;;;;;;39.65;16.57;;;;;;;-1.57;77.50;100090.70;1724784;83;25823;-49
2020/12/10 06:38:10;;;;;;;37.53;16.00;;;;;;;-1.49;77.56;100080.27;1846569;76;34131;-51
2020/12/10 06:40:42;;;;;;;35.43;16.37;;;;;;;-1.57;77.39;100075.59;1817190;78;25533;-49
2020/12/10 06:43:10;;;;;;;38.98;16.27;;;;;;;-1.56;77.42;100083.05;1817149;78;25789;-52
2020/12/10 06:45:39;;;;;;;34.83;15.83;;;;;;;-1.56;77.37;100080.39;1817131;78;25684;-50
2020/12/10 06:48:10;;;;;;;37.23;17.25;;;;;;;-1.56;77.38;100081.72;1817347;78;25562;-46
2020/12/10 06:50:41;;;;;;;39.92;17.75;;;;;;;-1.56;77.34;100095.78;1817027;78;25788;-49
2020/12/10 06:53:17;;;;;;;35.43;15.70;;;;;;;-1.56;77.34;100091.80;1795340;77;25782;-51
2020/12/10 06:56:07;;;;;;;38.80;16.67;;;;;;;-1.55;77.28;100084.64;1822410;77;26144;-53
2020/12/10 06:58:42;;;;;;;34.95;16.27;;;;;;;-1.57;77.26;100083.55;1841415;77;25560;-52
2020/12/10 07:01:31;;;;;;;34.88;15.80;;;;;;;-1.57;77.26;100085.40;1847746;77;26202;-52
2020/12/10 07:06:50;;;;;;;35.85;14.85;;;;;;;-1.56;77.29;100083.84;1844526;77;25594;-53
2020/12/10 07:09:17;;;;;;;38.80;16.37;;;;;;;-1.52;77.35;100074.36;1830357;77;26678;-51
2020/12/10 07:11:47;;;;;;;32.53;15.58;;;;;;;-1.52;77.30;100065.61;1848098;77;25702;-51
2020/12/10 07:14:33;;;;;;;37.15;16.45;;;;;;;-1.53;77.24;100066.14;1848220;77;25600;-52
2020/12/10 07:17:01;;;;;;;33.33;15.90;;;;;;;-1.53;77.28;100068.00;1776372;80;25657;-54
2020/12/10 07:19:27;;;;;;;37.93;16.20;;;;;;;-1.50;77.27;100064.84;1797541;79;25653;-55
2020/12/10 07:21:54;;;;;;;36.15;15.15;;;;;;;-1.48;77.30;100070.75;1776432;80;26290;-54
2020/12/10 07:24:20;;;;;;;32.33;15.48;;;;;;;-1.48;77.19;100068.09;1786825;79;25641;-53
2020/12/10 07:26:47;;;;;;;28.65;13.83;;;;;;;-1.47;77.17;100062.27;1757480;80;25755;-55
2020/12/10 07:29:14;;;;;;;25.92;13.35;;;;;;;-1.46;77.14;100069.16;1784115;80;25770;-53
2020/12/10 07:31:42;;;;;;;28.75;14.25;;;;;;;-1.48;77.05;100071.25;1762666;81;25652;-54
2020/12/10 07:34:11;;;;;;;33.75;14.00;;;;;;;-1.49;77.13;100070.45;1762542;81;25699;-54
2020/12/10 07:36:47;;;;;;;31.12;14.50;;;;;;;-1.46;77.07;100063.36;1762427;81;25597;-53
2020/12/10 07:39:20;;;;;;;29.20;13.98;;;;;;;-1.44;77.11;100053.84;1752239;81;25661;-53
2020/12/10 07:41:46;;;;;;;36.25;16.42;;;;;;;-1.44;77.05;100041.38;1762433;80;25563;-53
2020/12/10 07:44:13;;;;;;;25.57;13.15;;;;;;;-1.44;77.06;100046.67;1755301;81;25644;-53
2020/12/10 07:46:40;;;;;;;25.55;13.18;;;;;;;-1.44;77.03;100041.90;1755129;81;26233;-53
2020/12/10 07:49:08;;;;;;;28.55;14.15;;;;;;;-1.42;77.06;100042.47;1754581;81;25751;-54
2020/12/10 07:51:34;;;;;;;28.52;14.13;;;;;;;-1.42;77.05;100043.27;1754642;81;25621;-54
2020/12/10 07:54:03;;;;;;;26.25;13.00;;;;;;;-1.37;77.14;100044.69;1755408;81;25652;-54
2020/12/10 07:56:31;;;;;;;29.20;13.90;;;;;;;-1.35;77.01;100036.49;1781092;79;26202;-52
2020/12/10 07:59:08;;;;;;;30.20;13.78;;;;;;;-1.35;77.04;100042.59;1755245;80;25780;-54
2020/12/10 08:01:52;;;;;;;27.90;11.78;;;;;;;-1.35;77.04;100031.98;1749850;80;25733;-54
2020/12/10 08:04:21;;;;;;;27.37;12.78;;;;;;;-1.35;76.91;100033.31;1774701;80;25633;-54
2020/12/10 08:06:51;;;;;;;23.70;12.45;;;;;;;-1.34;76.99;100033.61;1760240;80;25659;-54
2020/12/10 08:09:18;;;;;;;23.77;11.95;;;;;;;-1.31;77.13;100037.65;1784224;79;25687;-55
2020/12/10 08:11:54;;;;;;;28.35;13.53;;;;;;;-1.30;77.13;100034.47;1775612;80;26137;-54
2020/12/10 08:14:26;;;;;;;24.67;11.15;;;;;;;-1.33;77.03;100037.88;1784563;80;25622;-53
2020/12/10 08:16:54;;;;;;;26.42;11.65;;;;;;;-1.33;77.19;100040.53;1771032;80;26189;-54
2020/12/10 08:19:27;;;;;;;28.52;13.30;;;;;;;-1.34;77.10;100040.24;1784525;80;25647;-53
2020/12/10 08:21:55;;;;;;;22.35;11.65;;;;;;;-1.30;77.24;100046.41;1770974;80;25757;-54
2020/12/10 08:24:41;;;;;;;24.90;11.28;;;;;;;-1.31;77.08;100044.28;1784339;80;25840;-55
2020/12/10 08:27:18;;;;;;;20.60;11.12;;;;;;;-1.32;77.16;100042.66;1771032;80;25658;-54
2020/12/10 08:30:00;;;;;;;20.70;10.80;;;;;;;-1.33;77.23;100042.36;1784548;80;25593;-54
2020/12/10 08:32:27;;;;;;;20.00;10.23;;;;;;;-1.34;77.31;100046.08;1771096;80;25696;-54
2020/12/10 08:35:08;;;;;;;24.45;12.40;;;;;;;-1.35;77.43;100042.59;1784699;80;25675;-53
2020/12/10 08:37:41;;;;;;;21.00;10.35;;;;;;;-1.34;77.49;100035.47;1768147;80;26270;-52
2020/12/10 08:40:10;;;;;;;24.50;11.97;;;;;;;-1.30;77.66;100033.14;1779685;80;26340;-54
2020/12/10 08:42:39;;;;;;;24.32;11.50;;;;;;;-1.29;77.73;100028.09;1797451;79;25712;-53
2020/12/10 08:45:07;;;;;;;22.85;12.43;;;;;;;-1.30;77.88;100025.97;1775600;80;25665;-53
2020/12/10 08:47:36;;;;;;;27.05;12.55;;;;;;;-1.32;78.00;100019.58;1792478;79;25628;-51
2020/12/10 08:53:12;;;;;;;23.57;12.37;;;;;;;-1.32;78.23;100030.72;1795012;79;25717;-51
2020/12/10 08:55:50;;;;;;;28.03;13.83;;;;;;;-1.32;78.71;100026.74;1776025;80;25778;-54
2020/12/10 08:58:29;;;;;;;33.63;15.05;;;;;;;-1.34;78.51;100022.99;1777102;79;25697;-57
2020/12/10 09:00:59;;;;;;;29.80;14.05;;;;;;;-1.32;78.61;100015.59;1760511;81;25734;-56
2020/12/10 09:03:26;;;;;;;31.23;15.30;;;;;;;-1.30;78.74;100017.22;1765325;81;26316;-54
2020/12/10 09:05:55;;;;;;;28.75;14.93;;;;;;;-1.30;78.80;100010.58;1765234;81;25785;-52
2020/12/10 09:08:21;;;;;;;27.45;14.23;;;;;;;-1.31;78.83;100009.79;1765423;81;25689;-56
2020/12/10 09:10:48;;;;;;;32.90;15.20;;;;;;;-1.32;79.02;100008.16;1718357;82;25618;-57
2020/12/10 09:13:17;;;;;;;36.80;15.30;;;;;;;-1.29;79.15;100012.17;1745598;80;25716;-56
2020/12/10 09:15:44;;;;;;;39.35;16.70;;;;;;;-1.29;79.25;100011.67;1747864;81;25722;-57
2020/12/10 09:18:15;;;;;;;35.83;16.93;;;;;;;-1.25;79.38;100010.15;1747828;82;25628;-55
2020/12/10 09:20:42;;;;;;;31.00;16.75;;;;;;;-1.20;79.47;100008.11;1747913;82;26371;-54
2020/12/10 09:23:10;;;;;;;36.30;17.60;;;;;;;-1.16;79.50;100003.43;1747872;82;25738;-55
2020/12/10 09:25:40;;;;;;;;;;;;;;;-1.12;79.58;100001.10;1750489;81;25971;-55
2020/12/10 09:28:09;;;;;;;35.92;16.37;;;;;;;-1.10;79.56;100006.17;1750714;81;26158;-56
2020/12/10 09:30:37;;;;;;;40.17;17.17;;;;;;;-1.15;79.47;99998.92;1747818;81;25694;-54
2020/12/10 09:33:05;;;;;;;40.12;18.73;;;;;;;-1.14;79.63;99997.36;1784286;78;25867;-55
2020/12/10 09:35:36;;;;;;;38.17;17.42;;;;;;;-1.13;79.59;99988.86;1759898;80;25647;-56
2020/12/10 09:38:05;;;;;;;41.00;17.82;;;;;;;-1.12;79.62;99990.48;1757175;79;25897;-56
2020/12/10 09:40:33;;;;;;;38.98;16.42;;;;;;;-1.11;79.67;99980.66;1758804;81;26492;-56
2020/12/10 09:43:00;;;;;;;36.50;17.55;;;;;;;-1.09;79.67;99978.56;1758761;81;25644;-55
2020/12/10 09:45:31;;;;;;;38.23;18.87;;;;;;;-1.05;79.72;99981.05;1758833;81;25790;-55
2020/12/10 09:47:58;;;;;;;36.88;18.12;;;;;;;-1.01;79.82;99976.86;1758812;81;25680;-53
2020/12/10 09:50:30;;;;;;;41.02;17.52;;;;;;;-0.98;79.77;99981.16;1758916;81;25583;-53
2020/12/10 09:58:07;;;;;;;44.00;18.32;;;;;;;-1.02;79.70;99972.08;1757341;81;25672;-55
2020/12/10 10:00:34;;;;;;;43.73;18.10;;;;;;;-1.05;79.63;99965.91;1757109;81;25731;-53
2020/12/10 10:03:06;;;;;;;34.60;16.30;;;;;;;-1.07;80.01;99967.18;1747902;82;25789;-55
2020/12/10 10:05:34;;;;;;;45.23;20.60;;;;;;;-1.08;79.86;99960.28;1778055;80;26240;-55
2020/12/10 10:08:04;;;;;;;39.80;18.25;;;;;;;-1.08;79.86;99961.08;1743764;82;25648;-57
2020/12/10 10:10:31;;;;;;;46.02;19.62;;;;;;;-1.09;80.00;99954.67;1747812;81;25751;-54
2020/12/10 10:13:01;;;;;;;43.87;19.25;;;;;;;-1.11;80.57;99950.93;1747849;82;25603;-56
2020/12/10 10:15:33;;;;;;;38.67;17.77;;;;;;;-1.13;80.08;99943.73;1747359;81;25695;-56
2020/12/10 10:18:01;;;;;;;43.02;18.42;;;;;;;-1.11;80.11;99950.13;1743440;82;25777;-57
2020/12/10 10:20:30;;;;;;;44.48;18.30;;;;;;;-1.11;80.30;99939.52;1718432;82;25746;-52
2020/12/10 10:22:57;;;;;;;41.83;18.33;;;;;;;-1.09;80.37;99932.11;1747476;82;25659;-56
2020/12/10 10:25:25;;;;;;;45.98;20.08;;;;;;;-1.09;80.21;99929.45;1747862;82;25623;-57
2020/12/10 10:27:54;;;;;;;47.97;22.43;;;;;;;-1.08;80.57;99935.86;1748188;82;25660;-56
2020/12/10 10:30:24;;;;;;;49.93;19.95;;;;;;;-1.06;80.44;99934.30;1718858;82;25818;-54
2020/12/10 10:32:50;;;;;;;51.58;20.40;;;;;;;-1.07;80.45;99919.39;1747730;81;25713;-56
2020/12/10 10:35:21;;;;;;;51.33;21.10;;;;;;;-1.07;80.42;99918.89;1747856;81;25557;-55
2020/12/10 10:37:48;;;;;;;55.83;22.42;;;;;;;-1.05;80.50;99915.47;1735706;81;25672;-56
2020/12/10 10:40:14;;;;;;;51.55;23.47;;;;;;;-1.06;80.49;99912.52;1729979;82;25742;-56
2020/12/10 10:42:44;;;;;;;55.85;20.37;;;;;;;-1.04;80.61;99913.11;1729869;82;25712;-54
2020/12/10 10:45:11;;;;;;;49.15;22.58;;;;;;;-1.02;80.77;99908.86;1729885;82;25785;-56
2020/12/10 10:47:40;;;;;;;50.03;20.97;;;;;;;-1.03;80.53;99904.08;1717738;81;25684;-56
2020/12/10 10:50:09;;;;;;;50.83;20.55;;;;;;;-1.03;80.89;99897.98;1725618;82;25672;-54
2020/12/10 10:52:36;;;;;;;58.13;24.07;;;;;;;-1.06;80.69;99894.47;1728057;82;25757;-51
2020/12/10 10:55:05;;;;;;;55.70;20.43;;;;;;;-1.06;80.72;99879.34;1728148;82;25728;-55
2020/12/10 10:57:31;;;;;;;55.15;22.90;;;;;;;-1.07;80.89;99879.58;1702069;84;26362;-50
2020/12/10 11:00:02;;;;;;;46.37;20.95;;;;;;;-1.09;80.74;99879.02;1702017;84;25799;-51
2020/12/10 11:02:37;;;;;;;57.10;22.30;;;;;;;-1.03;80.77;99880.19;1886049;76;34847;-48
2020/12/10 11:05:04;;;;;;;49.67;19.67;;;;;;;-1.07;80.74;99878.25;1871257;75;25644;-56
2020/12/10 11:07:32;;;;;;;53.80;21.17;;;;;;;-1.08;80.78;99871.35;1841726;77;25895;-56
2020/12/10 11:10:03;;;;;;;54.10;21.62;;;;;;;-1.10;80.73;99876.90;1766063;80;25700;-54
2020/12/10 11:12:33;;;;;;;52.85;21.75;;;;;;;-1.10;80.81;99871.59;1784763;80;25800;-56
2020/12/10 11:15:01;;;;;;;;;;;;;;;-1.11;80.76;99871.83;1771755;80;25683;-57
2020/12/10 11:17:29;;;;;;;51.37;21.23;;;;;;;-1.12;80.92;99871.03;1770402;80;26047;-56
2020/12/10 11:19:57;;;;;;;48.13;19.73;;;;;;;-1.11;80.95;99863.33;1770285;80;25762;-53
2020/12/10 11:22:24;;;;;;;47.73;20.70;;;;;;;-1.10;81.21;99862.30;1785352;80;25847;-56
2020/12/10 11:24:54;;;;;;;52.40;22.60;;;;;;;-1.10;80.98;99870.27;1770272;80;26378;-55
2020/12/10 11:27:21;;;;;;;56.15;22.95;;;;;;;-1.09;80.94;99875.86;1781506;80;26015;-54
2020/12/10 11:29:50;;;;;;;51.13;21.55;;;;;;;-1.05;80.99;99867.69;1785698;80;25690;-56
2020/12/10 11:32:17;;;;;;;61.23;24.70;;;;;;;-0.98;81.06;99868.84;1770065;80;26149;-55
2020/12/10 11:34:59;;;;;;;56.30;22.27;;;;;;;-0.96;81.08;99866.22;1785591;80;25983;-55